createdAt,value
2019-03-06T00:01:09.195Z,15.60
2019-03-06T00:02:14.266Z,24.95
2019-03-06T00:03:24.468Z,22.05
2019-03-06T00:04:29.078Z,16.97
2019-03-06T00:05:33.672Z,14.30
2019-03-06T00:06:38.268Z,30.62
2019-03-06T00:07:43.914Z,18.00
2019-03-06T00:08:48.725Z,20.37
2019-03-06T00:09:53.655Z,21.05
2019-03-06T00:10:58.489Z,16.25
2019-03-06T00:12:03.123Z,27.65
2019-03-06T00:13:07.781Z,22.32
2019-03-06T00:14:12.435Z,16.05
2019-03-06T00:15:17.068Z,17.20
2019-03-06T00:16:21.644Z,14.10
2019-03-06T00:17:26.223Z,21.07
2019-03-06T00:18:30.935Z,14.03
2019-03-06T00:19:35.824Z,16.75
2019-03-06T00:20:40.496Z,14.30
2019-03-06T00:21:45.191Z,17.30
2019-03-06T00:22:49.872Z,14.18
2019-03-06T00:23:54.517Z,13.53
2019-03-06T00:24:59.117Z,15.65
2019-03-06T00:26:03.817Z,23.70
2019-03-06T00:27:09.488Z,38.00
2019-03-06T00:28:15.282Z,22.82
2019-03-06T00:29:19.883Z,17.20
2019-03-06T00:30:24.536Z,82.00
2019-03-06T00:31:29.097Z,16.42
2019-03-06T00:32:33.674Z,15.00
2019-03-06T00:33:38.327Z,13.95
2019-03-06T00:34:43.315Z,27.82
2019-03-06T00:35:49.544Z,35.43
2019-03-06T00:36:54.167Z,22.40
2019-03-06T00:37:58.845Z,12.55
2019-03-06T00:39:04.960Z,14.98
2019-03-06T00:40:18.127Z,11.05
2019-03-06T00:41:30.421Z,10.30
2019-03-06T00:42:37.974Z,12.43
2019-03-06T00:43:42.823Z,11.70
2019-03-06T00:44:47.424Z,11.60
2019-03-06T00:45:51.999Z,13.25
2019-03-06T00:46:56.580Z,11.15
2019-03-06T00:48:01.216Z,15.68
2019-03-06T00:49:05.925Z,13.88
2019-03-06T00:50:10.583Z,50.30
2019-03-06T00:51:15.240Z,14.95
2019-03-06T00:52:19.821Z,15.18
2019-03-06T00:53:24.399Z,11.95
2019-03-06T00:54:29.074Z,15.63
2019-03-06T00:55:33.771Z,18.60
2019-03-06T00:56:38.384Z,18.73
2019-03-06T00:57:42.942Z,13.05
2019-03-06T00:58:47.604Z,21.10
2019-03-06T00:59:52.254Z,28.75
2019-03-06T01:00:56.868Z,16.97
2019-03-06T01:02:01.586Z,13.55
2019-03-06T01:03:07.166Z,15.15
2019-03-06T01:04:11.843Z,34.30
2019-03-06T01:05:17.480Z,22.42
2019-03-06T01:06:22.220Z,18.85
2019-03-06T01:07:27.070Z,11.45
2019-03-06T01:08:32.005Z,22.60
2019-03-06T01:09:36.608Z,15.48
2019-03-06T01:10:42.862Z,14.47
2019-03-06T01:11:47.472Z,13.78
2019-03-06T01:12:52.167Z,15.55
2019-03-06T01:13:56.736Z,12.40
2019-03-06T01:15:01.324Z,16.55
2019-03-06T01:16:06.147Z,34.10
2019-03-06T01:17:10.785Z,16.35
2019-03-06T01:18:15.375Z,20.77
2019-03-06T01:19:20.963Z,9.50
2019-03-06T01:20:25.679Z,13.62
2019-03-06T01:21:30.379Z,13.10
2019-03-06T01:22:35.108Z,11.35
2019-03-06T01:23:39.736Z,10.18
2019-03-06T01:24:44.984Z,11.10
2019-03-06T01:25:49.610Z,11.97
2019-03-06T01:26:54.163Z,15.03
2019-03-06T01:27:58.942Z,16.40
2019-03-06T01:29:03.512Z,12.00
2019-03-06T01:30:09.929Z,11.50
2019-03-06T01:31:14.549Z,14.35
2019-03-06T01:32:19.192Z,12.53
2019-03-06T01:33:47.335Z,10.90
2019-03-06T01:35:21.480Z,10.55
2019-03-06T01:36:39.891Z,14.60
2019-03-06T01:37:57.384Z,12.93
2019-03-06T01:39:25.400Z,15.75
2019-03-06T01:40:48.107Z,14.28
2019-03-06T01:41:57.971Z,11.97
2019-03-06T01:43:08.704Z,11.57
2019-03-06T01:44:17.739Z,13.20
2019-03-06T01:45:22.380Z,11.33
2019-03-06T01:46:27.032Z,14.10
2019-03-06T01:47:31.600Z,13.78
2019-03-06T01:48:36.159Z,15.50
2019-03-06T01:49:40.775Z,14.10
2019-03-06T01:50:45.384Z,15.00
2019-03-06T01:51:50.012Z,11.50
2019-03-06T01:52:54.614Z,17.27
2019-03-06T01:53:59.224Z,14.73
2019-03-06T01:55:04.224Z,13.45
2019-03-06T01:56:08.902Z,12.65
2019-03-06T01:57:13.520Z,15.60
2019-03-06T01:58:18.094Z,14.55
2019-03-06T01:59:22.676Z,14.60
2019-03-06T02:00:27.344Z,16.82
2019-03-06T02:01:32.104Z,13.62
2019-03-06T02:02:37.149Z,15.48
2019-03-06T02:03:41.704Z,17.37
2019-03-06T02:04:58.470Z,15.10
2019-03-06T02:06:03.352Z,14.20
2019-03-06T02:07:08.900Z,16.75
2019-03-06T02:08:14.811Z,14.33
2019-03-06T02:09:21.256Z,15.72
2019-03-06T02:10:25.988Z,16.90
2019-03-06T02:11:31.562Z,14.53
2019-03-06T02:12:36.127Z,17.75
2019-03-06T02:13:40.712Z,13.72
2019-03-06T02:14:45.254Z,16.55
2019-03-06T02:15:50.024Z,15.65
2019-03-06T02:16:54.728Z,15.60
2019-03-06T02:17:59.402Z,17.12
2019-03-06T02:19:04.288Z,17.62
2019-03-06T02:20:10.964Z,14.50
2019-03-06T02:21:15.612Z,16.27
2019-03-06T02:22:21.500Z,17.82
2019-03-06T02:23:26.126Z,17.07
2019-03-06T02:24:30.699Z,15.98
2019-03-06T02:25:35.391Z,16.15
2019-03-06T02:26:39.984Z,18.05
2019-03-06T02:27:44.643Z,15.95
2019-03-06T02:28:49.311Z,16.82
2019-03-06T02:29:53.875Z,21.12
2019-03-06T02:30:58.484Z,18.85
2019-03-06T02:32:03.120Z,16.65
2019-03-06T02:33:07.963Z,18.67
2019-03-06T02:34:12.831Z,19.05
2019-03-06T02:35:17.772Z,20.20
2019-03-06T02:36:22.387Z,17.75
2019-03-06T02:37:27.039Z,16.30
2019-03-06T02:38:31.686Z,17.77
2019-03-06T02:39:37.427Z,18.42
2019-03-06T02:40:42.042Z,18.98
2019-03-06T02:42:05.870Z,19.80
2019-03-06T02:43:10.465Z,16.77
2019-03-06T02:44:15.074Z,20.80
2019-03-06T02:45:19.753Z,17.77
2019-03-06T02:46:24.457Z,17.52
2019-03-06T02:47:29.148Z,20.45
2019-03-06T02:48:33.731Z,19.27
2019-03-06T02:49:38.284Z,20.40
2019-03-06T02:50:42.863Z,19.32
2019-03-06T02:51:47.453Z,17.62
2019-03-06T02:52:52.072Z,17.77
2019-03-06T02:53:56.667Z,21.55
2019-03-06T02:55:01.241Z,17.90
2019-03-06T02:56:05.860Z,23.85
2019-03-06T02:57:10.478Z,18.85
2019-03-06T02:58:21.892Z,22.93
2019-03-06T02:59:40.536Z,19.42
2019-03-06T03:01:13.639Z,24.32
2019-03-06T03:02:38.056Z,21.23
2019-03-06T03:04:17.182Z,20.10
2019-03-06T03:05:27.109Z,20.85
2019-03-06T03:06:42.402Z,24.70
2019-03-06T03:07:47.384Z,21.40
2019-03-06T03:08:52.785Z,24.50
2019-03-06T03:09:58.852Z,19.10
2019-03-06T03:11:03.525Z,21.05
2019-03-06T03:12:08.254Z,22.00
2019-03-06T03:13:12.809Z,23.10
2019-03-06T03:14:17.407Z,21.02
2019-03-06T03:15:22.326Z,19.90
2019-03-06T03:16:27.038Z,24.85
2019-03-06T03:17:31.811Z,22.55
2019-03-06T03:18:36.446Z,22.65
2019-03-06T03:19:42.145Z,22.77
2019-03-06T03:20:46.763Z,20.12
2019-03-06T03:21:51.465Z,25.82
2019-03-06T03:22:56.913Z,22.32
2019-03-06T03:24:02.293Z,24.05
2019-03-06T03:25:07.714Z,21.60
2019-03-06T03:26:12.836Z,22.70
2019-03-06T03:27:17.437Z,20.80
2019-03-06T03:28:22.101Z,22.82
2019-03-06T03:29:26.881Z,23.15
2019-03-06T03:30:31.503Z,21.87
2019-03-06T03:31:41.978Z,19.95
2019-03-06T03:32:46.677Z,23.27
2019-03-06T03:33:51.348Z,22.70
2019-03-06T03:34:55.952Z,26.02
2019-03-06T03:36:00.587Z,23.62
2019-03-06T03:37:06.004Z,20.90
2019-03-06T03:38:11.250Z,23.00
2019-03-06T03:39:16.443Z,21.82
2019-03-06T03:40:24.114Z,25.45
2019-03-06T03:41:28.963Z,24.52
2019-03-06T03:42:33.606Z,25.60
2019-03-06T03:43:38.182Z,22.55
2019-03-06T03:44:42.856Z,21.42
2019-03-06T03:45:47.549Z,20.85
2019-03-06T03:46:52.229Z,23.05
2019-03-06T03:47:56.881Z,22.55
2019-03-06T03:49:01.766Z,23.75
2019-03-06T03:50:06.999Z,23.55
2019-03-06T03:51:11.624Z,20.70
2019-03-06T03:52:16.737Z,20.62
2019-03-06T03:53:23.025Z,21.48
2019-03-06T03:54:27.606Z,25.10
2019-03-06T03:55:32.360Z,23.40
2019-03-06T03:56:37.088Z,25.65
2019-03-06T03:57:41.813Z,22.67
2019-03-06T03:58:46.421Z,23.42
2019-03-06T03:59:51.091Z,28.15
2019-03-06T04:00:56.365Z,26.55
2019-03-06T04:02:01.541Z,32.00
2019-03-06T04:03:06.279Z,23.30
2019-03-06T04:04:11.205Z,25.85
2019-03-06T04:05:15.823Z,27.00
2019-03-06T04:06:20.377Z,48.48
2019-03-06T04:07:25.035Z,27.95
2019-03-06T04:08:29.604Z,29.45
2019-03-06T04:09:36.788Z,27.65
2019-03-06T04:10:41.513Z,27.30
2019-03-06T04:11:46.084Z,25.17
2019-03-06T04:12:51.079Z,28.38
2019-03-06T04:13:56.278Z,26.05
2019-03-06T04:15:00.831Z,24.67
2019-03-06T04:16:06.142Z,27.05
2019-03-06T04:17:11.193Z,22.60
2019-03-06T04:18:16.431Z,25.50
2019-03-06T04:19:22.534Z,26.52
2019-03-06T04:20:27.597Z,24.02
2019-03-06T04:21:32.858Z,24.15
2019-03-06T04:22:38.134Z,25.43
2019-03-06T04:23:42.975Z,32.00
2019-03-06T04:24:49.227Z,24.45
2019-03-06T04:25:53.948Z,27.73
2019-03-06T04:26:58.528Z,28.23
2019-03-06T04:28:05.558Z,26.20
2019-03-06T04:29:10.168Z,23.45
2019-03-06T04:30:14.752Z,26.15
2019-03-06T04:31:19.441Z,25.20
2019-03-06T04:32:24.099Z,29.27
2019-03-06T04:33:28.808Z,23.85
2019-03-06T04:34:35.261Z,26.65
2019-03-06T04:35:40.457Z,32.05
2019-03-06T04:36:48.609Z,27.25
2019-03-06T04:37:54.061Z,26.90
2019-03-06T04:38:58.706Z,26.17
2019-03-06T04:40:03.625Z,26.35
2019-03-06T04:41:08.494Z,32.25
2019-03-06T04:42:13.266Z,30.02
2019-03-06T04:43:17.944Z,26.57
2019-03-06T04:44:22.608Z,26.85
2019-03-06T04:45:27.806Z,31.68
2019-03-06T04:46:32.743Z,31.02
2019-03-06T04:47:40.585Z,28.15
2019-03-06T04:48:48.603Z,22.65
2019-03-06T04:49:53.753Z,24.95
2019-03-06T04:50:58.524Z,25.70
2019-03-06T04:52:03.926Z,24.92
2019-03-06T04:53:14.379Z,26.65
2019-03-06T04:54:23.770Z,23.80
2019-03-06T04:55:31.606Z,24.32
2019-03-06T04:56:36.664Z,24.98
2019-03-06T04:57:42.087Z,26.23
2019-03-06T04:58:47.235Z,23.83
2019-03-06T04:59:52.450Z,25.60
2019-03-06T05:00:57.730Z,26.55
2019-03-06T05:02:02.907Z,25.85
2019-03-06T05:03:07.560Z,24.20
2019-03-06T05:04:12.724Z,24.32
2019-03-06T05:05:18.080Z,24.63
2019-03-06T05:06:23.475Z,25.82
2019-03-06T05:07:30.424Z,24.57
2019-03-06T05:08:35.667Z,25.92
2019-03-06T05:09:41.033Z,24.57
2019-03-06T05:10:47.714Z,21.77
2019-03-06T05:11:52.329Z,25.90
2019-03-06T05:12:57.403Z,23.52
2019-03-06T05:14:02.785Z,22.42
2019-03-06T05:15:09.430Z,28.23
2019-03-06T05:16:14.169Z,22.30
2019-03-06T05:17:25.060Z,22.15
2019-03-06T05:18:46.401Z,23.60
2019-03-06T05:19:51.112Z,24.55
2019-03-06T05:20:56.079Z,26.68
2019-03-06T05:22:00.738Z,25.57
2019-03-06T05:23:05.540Z,21.95
2019-03-06T05:24:10.584Z,24.60
2019-03-06T05:25:15.603Z,24.90
2019-03-06T05:26:20.588Z,23.38
2019-03-06T05:27:25.199Z,22.35
2019-03-06T05:28:30.601Z,19.92
2019-03-06T05:29:36.258Z,29.15
2019-03-06T05:30:44.025Z,22.20
2019-03-06T05:32:41.464Z,23.70
2019-03-06T05:33:46.995Z,23.55
2019-03-06T05:34:52.163Z,22.67
2019-03-06T05:36:41.200Z,26.27
2019-03-06T05:38:05.455Z,22.25
2019-03-06T05:39:11.814Z,22.87
2019-03-06T05:40:16.613Z,28.20
2019-03-06T05:41:23.677Z,26.10
2019-03-06T05:42:29.009Z,27.45
2019-03-06T05:43:34.001Z,24.57
2019-03-06T05:44:39.402Z,34.60
2019-03-06T05:45:44.128Z,28.12
2019-03-06T05:46:48.901Z,25.32
2019-03-06T05:47:53.563Z,29.40
2019-03-06T05:49:39.265Z,24.70
2019-03-06T05:50:31.946Z,22.98
2019-03-06T05:51:37.088Z,26.70
2019-03-06T05:52:41.982Z,22.52
2019-03-06T05:53:47.226Z,22.67
2019-03-06T05:54:55.080Z,25.72
2019-03-06T05:56:00.491Z,21.90
2019-03-06T05:57:09.930Z,20.45
2019-03-06T05:58:14.976Z,20.55
2019-03-06T05:59:20.524Z,26.55
2019-03-06T06:00:26.575Z,24.15
2019-03-06T06:01:31.256Z,22.25
2019-03-06T06:02:35.933Z,23.10
2019-03-06T06:03:40.701Z,21.30
2019-03-06T06:04:45.623Z,23.45
2019-03-06T06:05:50.403Z,27.42
2019-03-06T06:06:55.599Z,22.35
2019-03-06T06:08:02.533Z,22.13
2019-03-06T06:09:07.972Z,23.20
2019-03-06T06:10:13.467Z,21.50
2019-03-06T06:11:18.199Z,25.00
2019-03-06T06:12:22.816Z,21.12
2019-03-06T06:13:30.953Z,22.80
2019-03-06T06:14:33.987Z,23.87
2019-03-06T06:15:38.614Z,23.47
2019-03-06T06:16:43.202Z,25.57
2019-03-06T06:17:47.827Z,33.67
2019-03-06T06:18:52.471Z,29.98
2019-03-06T06:19:57.085Z,42.20
2019-03-06T06:21:13.484Z,32.90
2019-03-06T06:22:40.091Z,22.00
2019-03-06T06:23:48.920Z,22.13
2019-03-06T06:24:54.431Z,21.97
2019-03-06T06:25:59.109Z,24.63
2019-03-06T06:27:03.723Z,21.33
2019-03-06T06:28:08.323Z,22.07
2019-03-06T06:29:13.580Z,22.80
2019-03-06T06:30:18.742Z,22.60
2019-03-06T06:31:24.372Z,20.35
2019-03-06T06:32:29.898Z,19.73
2019-03-06T06:33:34.613Z,21.52
2019-03-06T06:34:39.407Z,27.65
2019-03-06T06:35:44.037Z,22.85
2019-03-06T06:36:48.789Z,20.62
2019-03-06T06:37:53.501Z,23.50
2019-03-06T06:38:58.176Z,19.50
2019-03-06T06:40:02.877Z,21.05
2019-03-06T06:41:07.617Z,21.75
2019-03-06T06:42:12.378Z,21.00
2019-03-06T06:43:17.092Z,23.02
2019-03-06T06:44:21.724Z,27.98
2019-03-06T06:45:27.423Z,22.77
2019-03-06T06:46:32.033Z,20.85
2019-03-06T06:47:36.783Z,26.68
2019-03-06T06:48:41.879Z,20.75
2019-03-06T06:49:46.933Z,21.00
2019-03-06T06:51:37.244Z,22.62
2019-03-06T06:53:10.166Z,20.43
2019-03-06T06:54:26.757Z,22.67
2019-03-06T06:56:17.839Z,22.48
2019-03-06T06:57:58.576Z,20.72
2019-03-06T06:59:17.117Z,19.30
2019-03-06T07:00:55.646Z,26.70
2019-03-06T07:02:34.565Z,21.75
2019-03-06T07:04:26.749Z,22.15
2019-03-06T07:05:44.009Z,31.90
2019-03-06T07:07:04.011Z,26.77
2019-03-06T07:08:34.093Z,28.20
2019-03-06T07:09:48.963Z,36.08
2019-03-06T07:11:17.727Z,25.27
2019-03-06T07:12:29.443Z,26.17
2019-03-06T07:13:56.056Z,49.63
2019-03-06T07:15:23.454Z,32.20
2019-03-06T07:16:36.243Z,26.93
2019-03-06T07:17:51.153Z,22.48
2019-03-06T07:19:14.967Z,31.25
2019-03-06T07:20:24.188Z,28.07
2019-03-06T07:21:46.879Z,23.85
2019-03-06T07:23:02.452Z,20.68
2019-03-06T07:24:19.121Z,21.97
2019-03-06T07:25:30.657Z,21.55
2019-03-06T07:26:53.111Z,24.80
2019-03-06T07:28:03.255Z,19.55
2019-03-06T07:29:26.167Z,27.30
2019-03-06T07:30:45.970Z,17.98
2019-03-06T07:32:20.659Z,19.75
2019-03-06T07:33:43.386Z,18.70
2019-03-06T07:35:51.192Z,15.78
2019-03-06T07:37:06.064Z,18.20
2019-03-06T07:38:10.756Z,17.67
2019-03-06T07:39:36.879Z,19.45
2019-03-06T07:40:59.507Z,19.25
2019-03-06T07:42:35.612Z,14.98
2019-03-06T07:43:58.971Z,15.40
2019-03-06T07:45:44.813Z,15.40
2019-03-06T07:47:14.670Z,14.93
2019-03-06T07:48:36.266Z,17.30
2019-03-06T07:49:56.817Z,15.18
2019-03-06T07:51:19.448Z,13.85
2019-03-06T07:52:32.776Z,16.32
2019-03-06T07:54:09.267Z,11.95
2019-03-06T07:55:36.845Z,14.30
2019-03-06T07:57:01.207Z,15.10
2019-03-06T07:58:41.904Z,17.55
2019-03-06T07:59:46.489Z,11.60
2019-03-06T08:00:51.105Z,11.85
2019-03-06T08:02:01.786Z,12.95
2019-03-06T08:03:23.088Z,16.42
2019-03-06T08:04:27.695Z,13.95
2019-03-06T08:05:32.384Z,12.98
2019-03-06T08:06:38.477Z,24.70
2019-03-06T08:07:43.088Z,14.65
2019-03-06T08:08:47.742Z,15.25
2019-03-06T08:09:52.671Z,17.07
2019-03-06T08:10:57.869Z,14.23
2019-03-06T08:12:23.735Z,15.98
2019-03-06T08:13:39.020Z,18.35
2019-03-06T08:14:59.921Z,16.93
2019-03-06T08:16:12.871Z,17.48
2019-03-06T08:17:24.197Z,22.80
2019-03-06T08:18:42.528Z,15.18
2019-03-06T08:20:05.249Z,14.30
2019-03-06T08:21:19.868Z,15.18
2019-03-06T08:22:33.383Z,18.70
2019-03-06T08:23:54.372Z,13.80
2019-03-06T08:25:17.216Z,15.88
2019-03-06T08:26:22.282Z,12.82
2019-03-06T08:27:26.908Z,16.37
2019-03-06T08:28:31.611Z,18.00
2019-03-06T08:29:36.332Z,17.73
2019-03-06T08:30:43.427Z,25.75
2019-03-06T08:31:51.696Z,34.45
2019-03-06T08:32:56.371Z,20.55
2019-03-06T08:34:01.003Z,26.42
2019-03-06T08:35:07.211Z,22.35
2019-03-06T08:36:11.810Z,17.87
2019-03-06T08:37:17.550Z,22.95
2019-03-06T08:38:23.250Z,21.90
2019-03-06T08:39:27.820Z,11.93
2019-03-06T08:40:32.432Z,21.87
2019-03-06T08:41:37.041Z,13.72
2019-03-06T08:42:41.876Z,15.53
2019-03-06T08:43:48.588Z,15.63
2019-03-06T08:44:53.302Z,15.53
2019-03-06T08:46:13.719Z,32.45
2019-03-06T08:47:31.623Z,16.05
2019-03-06T08:48:54.513Z,13.05
2019-03-06T08:50:08.909Z,16.87
2019-03-06T08:51:29.717Z,23.27
2019-03-06T08:52:45.239Z,13.00
2019-03-06T08:53:59.918Z,23.90
2019-03-06T08:55:19.959Z,16.48
2019-03-06T08:56:35.886Z,22.70
2019-03-06T08:58:03.013Z,25.27
2019-03-06T08:59:21.165Z,26.25
2019-03-06T09:00:46.663Z,22.05
2019-03-06T09:02:15.260Z,23.18
2019-03-06T09:03:27.563Z,11.40
2019-03-06T09:04:56.679Z,16.55
2019-03-06T09:06:09.689Z,22.50
2019-03-06T09:07:33.995Z,14.80
2019-03-06T09:08:56.483Z,15.93
2019-03-06T09:10:17.711Z,17.98
2019-03-06T09:11:41.228Z,14.60
2019-03-06T09:12:56.782Z,15.05
2019-03-06T09:14:19.305Z,14.00
2019-03-06T09:15:33.107Z,14.93
2019-03-06T09:16:42.668Z,19.05
2019-03-06T09:18:24.776Z,14.83
2019-03-06T09:19:47.275Z,12.35
2019-03-06T09:21:05.174Z,15.45
2019-03-06T09:22:38.956Z,24.92
2019-03-06T09:23:55.425Z,15.30
2019-03-06T09:25:06.708Z,15.32
2019-03-06T09:26:48.925Z,11.35
2019-03-06T09:28:08.449Z,12.70
2019-03-06T09:29:24.582Z,16.57
2019-03-06T09:30:33.767Z,13.20
2019-03-06T09:31:53.775Z,11.20
2019-03-06T09:33:35.743Z,11.60
2019-03-06T09:34:59.514Z,12.25
2019-03-06T09:36:16.604Z,18.82
2019-03-06T09:37:43.424Z,10.72
2019-03-06T09:39:14.876Z,14.30
2019-03-06T09:40:37.255Z,13.05
2019-03-06T09:41:51.403Z,12.40
2019-03-06T09:43:14.335Z,10.70
2019-03-06T09:44:32.690Z,10.05
2019-03-06T09:45:45.743Z,10.72
2019-03-06T09:46:56.667Z,14.50
2019-03-06T09:48:23.239Z,13.22
2019-03-06T09:49:44.009Z,14.30
2019-03-06T09:50:56.421Z,16.50
2019-03-06T09:52:18.434Z,9.05
2019-03-06T09:53:36.390Z,18.82
2019-03-06T09:54:57.432Z,12.73
2019-03-06T09:56:17.942Z,14.00
2019-03-06T09:57:40.456Z,13.00
2019-03-06T09:59:04.612Z,9.73
2019-03-06T10:00:21.933Z,13.45
2019-03-06T10:01:45.795Z,16.10
2019-03-06T10:03:21.331Z,14.83
2019-03-06T10:04:34.124Z,14.73
2019-03-06T10:05:53.232Z,13.78
2019-03-06T10:07:07.615Z,18.95
2019-03-06T10:08:26.731Z,11.12
2019-03-06T10:09:36.985Z,20.15
2019-03-06T10:10:57.898Z,18.48
2019-03-06T10:12:16.868Z,12.13
2019-03-06T10:13:49.702Z,13.90
2019-03-06T10:15:01.832Z,10.48
2019-03-06T10:16:17.843Z,14.33
2019-03-06T10:17:30.073Z,11.03
2019-03-06T10:18:53.567Z,10.78
2019-03-06T10:20:06.174Z,12.30
2019-03-06T10:21:10.888Z,10.50
2019-03-06T10:22:15.621Z,10.08
2019-03-06T10:23:20.324Z,9.30
2019-03-06T10:24:25.105Z,12.30
2019-03-06T10:25:31.057Z,11.95
2019-03-06T10:26:36.247Z,9.43
2019-03-06T10:27:41.020Z,9.90
2019-03-06T10:28:45.633Z,10.95
2019-03-06T10:29:50.591Z,11.20
2019-03-06T10:31:02.071Z,7.42
2019-03-06T10:32:01.786Z,15.38
2019-03-06T10:33:06.895Z,13.40
2019-03-06T10:34:11.555Z,8.75
2019-03-06T10:35:16.815Z,17.45
2019-03-06T10:36:21.521Z,11.20
2019-03-06T10:37:26.179Z,10.93
2019-03-06T10:38:34.002Z,14.10
2019-03-06T10:39:38.776Z,14.53
2019-03-06T10:40:43.515Z,13.72
2019-03-06T10:41:48.173Z,29.18
2019-03-06T10:42:53.977Z,10.50
2019-03-06T10:43:58.672Z,8.85
2019-03-06T10:45:03.520Z,17.73
2019-03-06T10:46:09.343Z,10.80
2019-03-06T10:47:14.032Z,19.42
2019-03-06T10:48:18.679Z,13.08
2019-03-06T10:49:23.531Z,9.25
2019-03-06T10:50:29.108Z,12.95
2019-03-06T10:51:34.539Z,9.70
2019-03-06T10:52:39.146Z,12.45
2019-03-06T10:53:43.902Z,10.03
2019-03-06T10:54:48.896Z,15.75
2019-03-06T10:55:53.658Z,8.43
2019-03-06T10:56:58.671Z,12.80
2019-03-06T10:58:04.002Z,13.78
2019-03-06T10:59:08.967Z,8.78
2019-03-06T11:00:20.890Z,14.75
2019-03-06T11:01:25.811Z,8.80
2019-03-06T11:02:30.590Z,8.78
2019-03-06T11:03:38.895Z,11.75
2019-03-06T11:04:51.364Z,8.10
2019-03-06T11:05:56.063Z,10.53
2019-03-06T11:07:00.925Z,10.65
2019-03-06T11:08:06.987Z,14.40
2019-03-06T11:09:12.112Z,11.65
2019-03-06T11:10:23.686Z,10.10
2019-03-06T11:11:24.279Z,10.93
2019-03-06T11:12:29.295Z,9.65
2019-03-06T11:13:35.284Z,16.10
2019-03-06T11:14:40.418Z,6.95
2019-03-06T11:15:45.405Z,10.72
2019-03-06T11:16:50.181Z,15.43
2019-03-06T11:17:55.315Z,9.43
2019-03-06T11:19:00.411Z,7.95
2019-03-06T11:20:07.744Z,10.35
2019-03-06T11:21:12.533Z,12.82
2019-03-06T11:22:17.445Z,8.70
2019-03-06T11:23:22.307Z,7.70
2019-03-06T11:24:27.722Z,9.45
2019-03-06T11:25:33.322Z,11.63
2019-03-06T11:26:39.111Z,10.32
2019-03-06T11:27:43.928Z,9.18
2019-03-06T11:28:48.851Z,7.45
2019-03-06T11:29:53.594Z,9.43
2019-03-06T11:30:59.384Z,6.85
2019-03-06T11:32:04.722Z,7.97
2019-03-06T11:33:11.388Z,7.42
2019-03-06T11:34:16.735Z,8.20
2019-03-06T11:35:22.256Z,12.90
2019-03-06T11:36:27.146Z,8.38
2019-03-06T11:37:31.836Z,11.80
2019-03-06T11:38:36.619Z,9.13
2019-03-06T11:39:41.356Z,5.95
2019-03-06T11:40:46.215Z,6.70
2019-03-06T11:41:50.887Z,8.70
2019-03-06T11:42:56.532Z,7.58
2019-03-06T11:44:01.232Z,12.75
2019-03-06T11:45:06.448Z,5.67
2019-03-06T11:46:11.616Z,8.25
2019-03-06T11:47:16.289Z,6.37
2019-03-06T11:48:21.315Z,5.65
2019-03-06T11:49:25.956Z,4.92
2019-03-06T11:50:30.848Z,14.55
2019-03-06T11:51:35.876Z,4.95
2019-03-06T11:52:40.620Z,9.73
2019-03-06T11:53:45.358Z,5.37
2019-03-06T11:54:50.023Z,6.58
2019-03-06T11:55:54.693Z,9.43
2019-03-06T11:57:00.444Z,11.75
2019-03-06T11:58:06.051Z,6.15
2019-03-06T11:59:10.848Z,33.95
2019-03-06T12:00:39.578Z,7.22
2019-03-06T12:01:47.889Z,5.92
2019-03-06T12:02:51.033Z,7.30
2019-03-06T12:03:55.959Z,7.55
2019-03-06T12:05:01.503Z,6.37
2019-03-06T12:06:07.441Z,5.50
2019-03-06T12:07:13.466Z,5.08
2019-03-06T12:08:18.925Z,4.53
2019-03-06T12:09:29.629Z,7.58
2019-03-06T12:10:34.437Z,5.55
2019-03-06T12:11:39.231Z,5.15
2019-03-06T12:12:43.832Z,4.40
2019-03-06T12:13:48.578Z,6.55
2019-03-06T12:14:53.264Z,8.65
2019-03-06T12:15:58.574Z,4.42
2019-03-06T12:17:03.548Z,8.18
2019-03-06T12:18:08.998Z,16.20
2019-03-06T12:19:13.656Z,7.95
2019-03-06T12:20:18.262Z,5.62
2019-03-06T12:21:23.363Z,15.38
2019-03-06T12:22:28.141Z,4.20
2019-03-06T12:23:33.029Z,5.90
2019-03-06T12:24:37.666Z,8.75
2019-03-06T12:25:42.495Z,5.58
2019-03-06T12:26:47.149Z,13.85
2019-03-06T12:27:51.830Z,6.75
2019-03-06T12:28:56.487Z,8.10
2019-03-06T12:30:01.168Z,5.25
2019-03-06T12:31:09.191Z,3.95
2019-03-06T12:32:13.941Z,3.70
2019-03-06T12:33:20.430Z,10.40
2019-03-06T12:34:25.057Z,6.83
2019-03-06T12:35:29.760Z,4.30
2019-03-06T12:36:36.130Z,7.95
2019-03-06T12:37:46.900Z,7.62
2019-03-06T12:38:47.444Z,7.92
2019-03-06T12:39:52.381Z,12.07
2019-03-06T12:40:57.062Z,10.88
2019-03-06T12:42:01.722Z,6.58
2019-03-06T12:43:06.673Z,11.33
2019-03-06T12:44:11.395Z,19.85
2019-03-06T12:45:16.479Z,5.55
2019-03-06T12:46:24.223Z,15.70
2019-03-06T12:47:29.033Z,5.30
2019-03-06T12:48:34.204Z,5.20
2019-03-06T12:49:38.863Z,15.53
2019-03-06T12:50:43.525Z,6.83
2019-03-06T12:51:54.465Z,10.28
2019-03-06T12:52:54.509Z,7.50
2019-03-06T12:53:59.074Z,4.70
2019-03-06T12:55:04.545Z,6.58
2019-03-06T12:56:09.427Z,6.67
2019-03-06T12:57:14.071Z,8.20
2019-03-06T12:58:18.674Z,7.15
2019-03-06T12:59:23.290Z,7.50
2019-03-06T13:00:28.108Z,4.20
2019-03-06T13:01:32.961Z,5.00
2019-03-06T13:02:38.005Z,10.20
2019-03-06T13:03:42.709Z,3.90
2019-03-06T13:04:47.296Z,3.85
2019-03-06T13:05:52.083Z,5.15
2019-03-06T13:06:56.920Z,5.28
2019-03-06T13:08:01.721Z,9.10
2019-03-06T13:09:17.416Z,6.67
2019-03-06T13:10:22.169Z,5.67
2019-03-06T13:11:27.934Z,4.28
2019-03-06T13:12:32.571Z,5.50
2019-03-06T13:13:37.292Z,8.03
2019-03-06T13:14:41.985Z,6.58
2019-03-06T13:15:46.870Z,4.47
2019-03-06T13:16:52.111Z,3.67
2019-03-06T13:17:56.879Z,4.60
2019-03-06T13:19:01.479Z,7.45
2019-03-06T13:20:08.953Z,5.75
2019-03-06T13:21:13.727Z,5.92
2019-03-06T13:22:18.320Z,5.58
2019-03-06T13:23:22.951Z,2.95
2019-03-06T13:24:28.135Z,4.00
2019-03-06T13:25:32.924Z,4.20
2019-03-06T13:26:37.630Z,4.83
2019-03-06T13:27:42.203Z,3.25
2019-03-06T13:28:46.911Z,3.40
2019-03-06T13:29:51.581Z,4.30
2019-03-06T13:30:57.036Z,2.95
2019-03-06T13:32:01.629Z,2.60
2019-03-06T13:33:25.618Z,2.75
2019-03-06T13:34:52.418Z,9.75
2019-03-06T13:36:00.791Z,2.72
2019-03-06T13:37:05.785Z,4.03
2019-03-06T13:38:10.768Z,4.10
2019-03-06T13:39:17.123Z,4.22
2019-03-06T13:40:22.094Z,2.67
2019-03-06T13:41:27.940Z,4.90
2019-03-06T13:42:34.451Z,2.80
2019-03-06T13:43:39.264Z,4.12
2019-03-06T13:44:44.108Z,3.58
2019-03-06T13:45:48.997Z,2.42
2019-03-06T13:46:53.900Z,3.05
2019-03-06T13:47:58.660Z,2.70
2019-03-06T13:49:03.610Z,3.35
2019-03-06T13:50:08.416Z,3.33
2019-03-06T13:51:13.270Z,4.75
2019-03-06T13:52:20.143Z,4.50
2019-03-06T13:53:24.957Z,3.75
2019-03-06T13:54:30.295Z,4.53
2019-03-06T13:55:35.083Z,2.17
2019-03-06T13:56:39.936Z,2.22
2019-03-06T13:57:45.846Z,2.98
2019-03-06T13:58:51.679Z,2.65
2019-03-06T13:59:56.468Z,7.50
2019-03-06T14:01:01.452Z,5.70
2019-03-06T14:02:06.183Z,2.95
2019-03-06T14:03:10.930Z,2.60
2019-03-06T14:04:15.696Z,2.85
2019-03-06T14:05:20.864Z,3.65
2019-03-06T14:06:25.799Z,3.00
2019-03-06T14:07:30.655Z,4.55
2019-03-06T14:08:35.689Z,2.45
2019-03-06T14:09:40.523Z,3.40
2019-03-06T14:10:45.108Z,4.22
2019-03-06T14:11:50.044Z,4.30
2019-03-06T14:12:54.676Z,4.12
2019-03-06T14:13:59.268Z,3.35
2019-03-06T14:15:04.286Z,2.45
2019-03-06T14:16:09.288Z,3.20
2019-03-06T14:17:14.296Z,4.50
2019-03-06T14:18:19.263Z,3.35
2019-03-06T14:19:23.911Z,3.47
2019-03-06T14:20:28.551Z,2.40
2019-03-06T14:21:33.318Z,3.08
2019-03-06T14:22:37.880Z,4.35
2019-03-06T14:23:42.977Z,4.90
2019-03-06T14:24:47.705Z,3.70
2019-03-06T14:25:52.624Z,4.25
2019-03-06T14:26:57.258Z,6.90
2019-03-06T14:28:02.024Z,4.42
2019-03-06T14:29:07.560Z,14.03
2019-03-06T14:30:13.945Z,6.62
2019-03-06T14:31:18.749Z,7.08
2019-03-06T14:32:23.489Z,13.13
2019-03-06T14:33:28.095Z,83.20
2019-03-06T14:34:32.991Z,6.05
2019-03-06T14:35:37.671Z,6.97
2019-03-06T14:36:42.637Z,3.95
2019-03-06T14:37:47.272Z,11.85
2019-03-06T14:38:51.929Z,8.35
2019-03-06T14:39:56.944Z,13.72
2019-03-06T14:41:01.735Z,5.72
2019-03-06T14:42:06.872Z,13.00
2019-03-06T14:43:11.739Z,4.45
2019-03-06T14:44:16.294Z,8.48
2019-03-06T14:45:20.859Z,7.15
2019-03-06T14:46:25.563Z,5.58
2019-03-06T14:47:30.339Z,5.55
2019-03-06T14:48:38.630Z,4.53
2019-03-06T14:49:43.226Z,3.90
2019-03-06T14:50:47.957Z,10.75
2019-03-06T14:51:52.679Z,8.68
2019-03-06T14:52:57.470Z,5.58